sensor_id;sensor_type;location;lat;lon;timestamp;P1;durP1;ratioP1;P2;durP2;ratioP2
4084;SDS011;2057;50.858;6.572;2023-12-07T00:01:46;28.67;;;19.93;;
4084;SDS011;2057;50.858;6.572;2023-12-07T00:04:14;40.10;;;20.70;;
4084;SDS011;2057;50.858;6.572;2023-12-07T00:06:44;30.85;;;18.67;;
4084;SDS011;2057;50.858;6.572;2023-12-07T00:09:09;39.43;;;20.07;;
4084;SDS011;2057;50.858;6.572;2023-12-07T00:11:35;37.77;;;20.53;;
4084;SDS011;2057;50.858;6.572;2023-12-07T00:14:00;28.77;;;18.07;;
4084;SDS011;2057;50.858;6.572;2023-12-07T00:16:25;30.73;;;17.43;;
4084;SDS011;2057;50.858;6.572;2023-12-07T00:18:55;32.03;;;19.33;;
4084;SDS011;2057;50.858;6.572;2023-12-07T00:21:21;26.00;;;16.77;;
4084;SDS011;2057;50.858;6.572;2023-12-07T00:23:46;28.70;;;18.17;;
4084;SDS011;2057;50.858;6.572;2023-12-07T00:26:11;40.53;;;20.50;;
4084;SDS011;2057;50.858;6.572;2023-12-07T00:28:37;25.40;;;15.87;;
4084;SDS011;2057;50.858;6.572;2023-12-07T00:31:04;33.03;;;18.73;;
4084;SDS011;2057;50.858;6.572;2023-12-07T00:33:35;34.85;;;17.95;;
4084;SDS011;2057;50.858;6.572;2023-12-07T00:36:01;31.88;;;17.50;;
4084;SDS011;2057;50.858;6.572;2023-12-07T00:38:26;29.23;;;18.03;;
4084;SDS011;2057;50.858;6.572;2023-12-07T00:40:51;37.17;;;20.70;;
4084;SDS011;2057;50.858;6.572;2023-12-07T00:43:17;29.23;;;17.90;;
4084;SDS011;2057;50.858;6.572;2023-12-07T00:45:45;32.28;;;18.55;;
4084;SDS011;2057;50.858;6.572;2023-12-07T00:48:11;30.93;;;18.73;;
4084;SDS011;2057;50.858;6.572;2023-12-07T00:50:36;29.23;;;18.80;;
4084;SDS011;2057;50.858;6.572;2023-12-07T00:53:01;35.07;;;19.23;;
4084;SDS011;2057;50.858;6.572;2023-12-07T00:55:29;32.70;;;20.13;;
4084;SDS011;2057;50.858;6.572;2023-12-07T00:58:00;45.45;;;20.27;;
4084;SDS011;2057;50.858;6.572;2023-12-07T01:00:26;40.22;;;19.15;;
4084;SDS011;2057;50.858;6.572;2023-12-07T01:02:52;40.70;;;20.03;;
4084;SDS011;2057;50.858;6.572;2023-12-07T01:05:17;42.13;;;20.57;;
4084;SDS011;2057;50.858;6.572;2023-12-07T01:07:43;42.33;;;18.87;;
4084;SDS011;2057;50.858;6.572;2023-12-07T01:10:10;26.25;;;17.10;;
4084;SDS011;2057;50.858;6.572;2023-12-07T01:12:36;38.03;;;18.07;;
4084;SDS011;2057;50.858;6.572;2023-12-07T01:15:01;40.47;;;18.10;;
4084;SDS011;2057;50.858;6.572;2023-12-07T01:17:27;26.57;;;17.53;;
4084;SDS011;2057;50.858;6.572;2023-12-07T01:19:52;28.50;;;17.73;;
4084;SDS011;2057;50.858;6.572;2023-12-07T01:22:20;32.15;;;17.45;;
4084;SDS011;2057;50.858;6.572;2023-12-07T01:24:45;32.60;;;18.07;;
4084;SDS011;2057;50.858;6.572;2023-12-07T01:27:11;28.37;;;17.80;;
4084;SDS011;2057;50.858;6.572;2023-12-07T01:29:36;29.60;;;18.90;;
4084;SDS011;2057;50.858;6.572;2023-12-07T01:32:01;31.23;;;20.40;;
4084;SDS011;2057;50.858;6.572;2023-12-07T01:34:29;30.95;;;17.92;;
4084;SDS011;2057;50.858;6.572;2023-12-07T01:36:56;27.45;;;17.75;;
4084;SDS011;2057;50.858;6.572;2023-12-07T01:39:22;27.80;;;17.10;;
4084;SDS011;2057;50.858;6.572;2023-12-07T01:41:52;40.38;;;18.73;;
4084;SDS011;2057;50.858;6.572;2023-12-07T01:44:19;40.22;;;19.65;;
4084;SDS011;2057;50.858;6.572;2023-12-07T01:46:45;33.90;;;16.83;;
4084;SDS011;2057;50.858;6.572;2023-12-07T01:49:13;32.43;;;18.97;;
4084;SDS011;2057;50.858;6.572;2023-12-07T01:51:38;32.22;;;18.50;;
4084;SDS011;2057;50.858;6.572;2023-12-07T01:54:03;30.10;;;18.43;;
4084;SDS011;2057;50.858;6.572;2023-12-07T01:56:29;35.50;;;20.67;;
4084;SDS011;2057;50.858;6.572;2023-12-07T01:58:55;39.55;;;20.58;;
4084;SDS011;2057;50.858;6.572;2023-12-07T02:01:22;31.73;;;20.25;;
4084;SDS011;2057;50.858;6.572;2023-12-07T02:03:50;32.63;;;21.45;;
4084;SDS011;2057;50.858;6.572;2023-12-07T02:06:15;33.23;;;18.93;;
4084;SDS011;2057;50.858;6.572;2023-12-07T02:08:41;28.50;;;18.20;;
4084;SDS011;2057;50.858;6.572;2023-12-07T02:11:07;30.15;;;18.50;;
4084;SDS011;2057;50.858;6.572;2023-12-07T02:13:35;36.60;;;18.02;;
4084;SDS011;2057;50.858;6.572;2023-12-07T02:16:11;28.42;;;17.05;;
4084;SDS011;2057;50.858;6.572;2023-12-07T02:18:49;32.15;;;18.50;;
4084;SDS011;2057;50.858;6.572;2023-12-07T02:21:25;28.55;;;17.13;;
4084;SDS011;2057;50.858;6.572;2023-12-07T02:23:57;28.95;;;16.52;;
4084;SDS011;2057;50.858;6.572;2023-12-07T02:26:27;32.30;;;19.00;;
4084;SDS011;2057;50.858;6.572;2023-12-07T02:28:56;28.33;;;17.73;;
4084;SDS011;2057;50.858;6.572;2023-12-07T02:31:21;37.60;;;18.10;;
4084;SDS011;2057;50.858;6.572;2023-12-07T02:33:46;32.57;;;18.93;;
4084;SDS011;2057;50.858;6.572;2023-12-07T02:36:12;24.70;;;16.57;;
4084;SDS011;2057;50.858;6.572;2023-12-07T02:38:41;34.63;;;19.02;;
4084;SDS011;2057;50.858;6.572;2023-12-07T02:41:09;26.88;;;17.63;;
4084;SDS011;2057;50.858;6.572;2023-12-07T02:43:35;35.92;;;17.42;;
4084;SDS011;2057;50.858;6.572;2023-12-07T02:46:01;37.20;;;17.77;;
4084;SDS011;2057;50.858;6.572;2023-12-07T02:48:27;36.87;;;19.60;;
4084;SDS011;2057;50.858;6.572;2023-12-07T02:50:55;39.00;;;18.15;;
4084;SDS011;2057;50.858;6.572;2023-12-07T02:53:20;33.50;;;18.93;;
4084;SDS011;2057;50.858;6.572;2023-12-07T02:55:46;32.50;;;19.63;;
4084;SDS011;2057;50.858;6.572;2023-12-07T02:58:11;36.57;;;20.33;;
4084;SDS011;2057;50.858;6.572;2023-12-07T03:00:39;52.63;;;20.48;;
4084;SDS011;2057;50.858;6.572;2023-12-07T03:03:07;42.30;;;21.30;;
4084;SDS011;2057;50.858;6.572;2023-12-07T03:05:32;35.53;;;19.67;;
4084;SDS011;2057;50.858;6.572;2023-12-07T03:07:58;38.70;;;22.43;;
4084;SDS011;2057;50.858;6.572;2023-12-07T03:10:26;34.78;;;20.70;;
4084;SDS011;2057;50.858;6.572;2023-12-07T03:12:52;31.53;;;21.40;;
4084;SDS011;2057;50.858;6.572;2023-12-07T03:15:24;33.15;;;19.00;;
4084;SDS011;2057;50.858;6.572;2023-12-07T03:17:51;42.10;;;19.90;;
4084;SDS011;2057;50.858;6.572;2023-12-07T03:20:16;36.27;;;19.90;;
4084;SDS011;2057;50.858;6.572;2023-12-07T03:22:42;33.57;;;20.60;;
4084;SDS011;2057;50.858;6.572;2023-12-07T03:25:13;30.17;;;19.30;;
4084;SDS011;2057;50.858;6.572;2023-12-07T03:27:38;41.50;;;18.40;;
4084;SDS011;2057;50.858;6.572;2023-12-07T03:30:03;37.60;;;20.97;;
4084;SDS011;2057;50.858;6.572;2023-12-07T03:32:29;34.95;;;18.45;;
4084;SDS011;2057;50.858;6.572;2023-12-07T03:34:55;30.23;;;16.67;;
4084;SDS011;2057;50.858;6.572;2023-12-07T03:37:23;42.00;;;18.80;;
4084;SDS011;2057;50.858;6.572;2023-12-07T03:39:48;39.67;;;18.20;;
4084;SDS011;2057;50.858;6.572;2023-12-07T03:42:14;31.33;;;17.90;;
4084;SDS011;2057;50.858;6.572;2023-12-07T03:44:39;28.57;;;15.60;;
4084;SDS011;2057;50.858;6.572;2023-12-07T03:47:09;40.47;;;17.85;;
4084;SDS011;2057;50.858;6.572;2023-12-07T03:49:35;34.83;;;17.63;;
4084;SDS011;2057;50.858;6.572;2023-12-07T03:52:03;33.55;;;15.75;;
4084;SDS011;2057;50.858;6.572;2023-12-07T03:54:29;27.87;;;17.17;;
4084;SDS011;2057;50.858;6.572;2023-12-07T03:56:57;24.70;;;14.50;;
4084;SDS011;2057;50.858;6.572;2023-12-07T03:59:25;26.67;;;15.27;;
4084;SDS011;2057;50.858;6.572;2023-12-07T04:01:51;25.57;;;15.87;;
4084;SDS011;2057;50.858;6.572;2023-12-07T04:04:16;31.23;;;16.27;;
4084;SDS011;2057;50.858;6.572;2023-12-07T04:06:41;27.17;;;16.57;;
4084;SDS011;2057;50.858;6.572;2023-12-07T04:09:06;30.60;;;16.00;;
4084;SDS011;2057;50.858;6.572;2023-12-07T04:11:34;25.65;;;15.07;;
4084;SDS011;2057;50.858;6.572;2023-12-07T04:13:59;23.40;;;14.47;;
4084;SDS011;2057;50.858;6.572;2023-12-07T04:16:27;30.67;;;13.65;;
4084;SDS011;2057;50.858;6.572;2023-12-07T04:18:52;37.50;;;16.90;;
4084;SDS011;2057;50.858;6.572;2023-12-07T04:21:20;27.95;;;13.63;;
4084;SDS011;2057;50.858;6.572;2023-12-07T04:23:45;28.00;;;14.40;;
4084;SDS011;2057;50.858;6.572;2023-12-07T04:26:13;21.58;;;12.95;;
4084;SDS011;2057;50.858;6.572;2023-12-07T04:28:40;27.33;;;12.65;;
4084;SDS011;2057;50.858;6.572;2023-12-07T04:31:05;24.40;;;13.90;;
4084;SDS011;2057;50.858;6.572;2023-12-07T04:33:31;19.80;;;13.37;;
4084;SDS011;2057;50.858;6.572;2023-12-07T04:35:56;21.50;;;14.50;;
4084;SDS011;2057;50.858;6.572;2023-12-07T04:38:21;26.00;;;13.73;;
4084;SDS011;2057;50.858;6.572;2023-12-07T04:40:47;21.53;;;13.07;;
4084;SDS011;2057;50.858;6.572;2023-12-07T04:43:14;20.63;;;11.63;;
4084;SDS011;2057;50.858;6.572;2023-12-07T04:45:42;25.77;;;13.10;;
4084;SDS011;2057;50.858;6.572;2023-12-07T04:48:07;23.93;;;11.40;;
4084;SDS011;2057;50.858;6.572;2023-12-07T04:50:32;21.30;;;12.20;;
4084;SDS011;2057;50.858;6.572;2023-12-07T04:52:58;21.03;;;12.80;;
4084;SDS011;2057;50.858;6.572;2023-12-07T04:55:24;29.37;;;12.93;;
4084;SDS011;2057;50.858;6.572;2023-12-07T04:57:52;26.00;;;11.32;;
4084;SDS011;2057;50.858;6.572;2023-12-07T05:00:20;26.48;;;12.30;;
4084;SDS011;2057;50.858;6.572;2023-12-07T05:02:46;19.27;;;12.43;;
4084;SDS011;2057;50.858;6.572;2023-12-07T05:05:14;22.35;;;12.13;;
4084;SDS011;2057;50.858;6.572;2023-12-07T05:07:39;28.67;;;12.57;;
4084;SDS011;2057;50.858;6.572;2023-12-07T05:10:07;19.75;;;12.43;;
4084;SDS011;2057;50.858;6.572;2023-12-07T05:12:34;20.45;;;12.95;;
4084;SDS011;2057;50.858;6.572;2023-12-07T05:15:00;25.25;;;11.88;;
4084;SDS011;2057;50.858;6.572;2023-12-07T05:17:26;17.33;;;11.40;;
4084;SDS011;2057;50.858;6.572;2023-12-07T05:19:51;23.60;;;12.50;;
4084;SDS011;2057;50.858;6.572;2023-12-07T05:22:16;16.87;;;11.87;;
4084;SDS011;2057;50.858;6.572;2023-12-07T05:24:42;19.37;;;11.83;;
4084;SDS011;2057;50.858;6.572;2023-12-07T05:27:07;22.83;;;12.60;;
4084;SDS011;2057;50.858;6.572;2023-12-07T05:29:33;26.70;;;11.33;;
4084;SDS011;2057;50.858;6.572;2023-12-07T05:32:01;24.03;;;12.17;;
4084;SDS011;2057;50.858;6.572;2023-12-07T05:34:26;22.80;;;11.68;;
4084;SDS011;2057;50.858;6.572;2023-12-07T05:36:51;27.00;;;11.70;;
4084;SDS011;2057;50.858;6.572;2023-12-07T05:39:17;20.50;;;11.90;;
4084;SDS011;2057;50.858;6.572;2023-12-07T05:41:42;18.40;;;11.20;;
4084;SDS011;2057;50.858;6.572;2023-12-07T05:44:08;24.57;;;11.00;;
4084;SDS011;2057;50.858;6.572;2023-12-07T05:46:39;19.27;;;12.50;;
4084;SDS011;2057;50.858;6.572;2023-12-07T05:49:09;20.83;;;11.57;;
4084;SDS011;2057;50.858;6.572;2023-12-07T05:51:36;16.97;;;11.73;;
4084;SDS011;2057;50.858;6.572;2023-12-07T05:54:07;19.17;;;10.82;;
4084;SDS011;2057;50.858;6.572;2023-12-07T05:56:32;23.23;;;12.00;;
4084;SDS011;2057;50.858;6.572;2023-12-07T05:58:58;21.07;;;13.10;;
4084;SDS011;2057;50.858;6.572;2023-12-07T06:01:23;16.23;;;10.33;;
4084;SDS011;2057;50.858;6.572;2023-12-07T06:03:52;20.08;;;11.88;;
4084;SDS011;2057;50.858;6.572;2023-12-07T06:06:17;23.38;;;11.73;;
4084;SDS011;2057;50.858;6.572;2023-12-07T06:08:42;17.27;;;11.37;;
4084;SDS011;2057;50.858;6.572;2023-12-07T06:11:09;18.52;;;11.40;;
4084;SDS011;2057;50.858;6.572;2023-12-07T06:13:34;19.00;;;11.53;;
4084;SDS011;2057;50.858;6.572;2023-12-07T06:15:59;17.70;;;10.87;;
4084;SDS011;2057;50.858;6.572;2023-12-07T06:18:26;24.80;;;11.32;;
4084;SDS011;2057;50.858;6.572;2023-12-07T06:20:53;19.20;;;12.32;;
4084;SDS011;2057;50.858;6.572;2023-12-07T06:23:18;18.43;;;11.17;;
4084;SDS011;2057;50.858;6.572;2023-12-07T06:25:43;23.80;;;12.80;;
4084;SDS011;2057;50.858;6.572;2023-12-07T06:28:09;22.10;;;12.47;;
4084;SDS011;2057;50.858;6.572;2023-12-07T06:30:34;28.40;;;12.37;;
4084;SDS011;2057;50.858;6.572;2023-12-07T06:33:07;22.53;;;12.70;;
4084;SDS011;2057;50.858;6.572;2023-12-07T06:35:34;24.00;;;12.45;;
4084;SDS011;2057;50.858;6.572;2023-12-07T06:38:00;21.90;;;11.83;;
4084;SDS011;2057;50.858;6.572;2023-12-07T06:40:25;19.27;;;12.97;;
4084;SDS011;2057;50.858;6.572;2023-12-07T06:42:53;25.40;;;12.82;;
4084;SDS011;2057;50.858;6.572;2023-12-07T06:45:20;21.63;;;13.25;;
4084;SDS011;2057;50.858;6.572;2023-12-07T06:47:45;21.33;;;13.00;;
4084;SDS011;2057;50.858;6.572;2023-12-07T06:50:11;25.40;;;13.85;;
4084;SDS011;2057;50.858;6.572;2023-12-07T06:52:39;27.38;;;13.20;;
4084;SDS011;2057;50.858;6.572;2023-12-07T06:55:06;20.08;;;14.18;;
4084;SDS011;2057;50.858;6.572;2023-12-07T06:57:32;28.13;;;14.30;;
4084;SDS011;2057;50.858;6.572;2023-12-07T06:59:58;18.80;;;12.18;;
4084;SDS011;2057;50.858;6.572;2023-12-07T07:02:23;32.50;;;13.80;;
4084;SDS011;2057;50.858;6.572;2023-12-07T07:04:49;27.43;;;14.33;;
4084;SDS011;2057;50.858;6.572;2023-12-07T07:07:15;33.35;;;14.43;;
4084;SDS011;2057;50.858;6.572;2023-12-07T07:09:41;27.80;;;14.20;;
4084;SDS011;2057;50.858;6.572;2023-12-07T07:12:07;33.27;;;18.00;;
4084;SDS011;2057;50.858;6.572;2023-12-07T07:14:35;29.98;;;17.58;;
4084;SDS011;2057;50.858;6.572;2023-12-07T07:17:03;30.30;;;16.73;;
4084;SDS011;2057;50.858;6.572;2023-12-07T07:19:33;32.13;;;18.10;;
4084;SDS011;2057;50.858;6.572;2023-12-07T07:22:01;33.85;;;16.73;;
4084;SDS011;2057;50.858;6.572;2023-12-07T07:24:27;34.33;;;18.60;;
4084;SDS011;2057;50.858;6.572;2023-12-07T07:26:53;33.78;;;19.20;;
4084;SDS011;2057;50.858;6.572;2023-12-07T07:29:23;32.78;;;16.48;;
4084;SDS011;2057;50.858;6.572;2023-12-07T07:31:50;36.58;;;18.25;;
4084;SDS011;2057;50.858;6.572;2023-12-07T07:34:16;27.30;;;18.57;;
4084;SDS011;2057;50.858;6.572;2023-12-07T07:36:41;29.63;;;16.53;;
4084;SDS011;2057;50.858;6.572;2023-12-07T07:39:06;49.17;;;28.07;;
4084;SDS011;2057;50.858;6.572;2023-12-07T07:41:35;39.33;;;21.92;;
4084;SDS011;2057;50.858;6.572;2023-12-07T07:44:02;41.08;;;18.80;;
4084;SDS011;2057;50.858;6.572;2023-12-07T07:46:31;26.83;;;16.50;;
4084;SDS011;2057;50.858;6.572;2023-12-07T07:48:57;25.15;;;15.75;;
4084;SDS011;2057;50.858;6.572;2023-12-07T07:51:28;27.38;;;15.13;;
4084;SDS011;2057;50.858;6.572;2023-12-07T07:53:54;23.40;;;15.23;;
4084;SDS011;2057;50.858;6.572;2023-12-07T07:56:24;28.92;;;15.23;;
4084;SDS011;2057;50.858;6.572;2023-12-07T07:58:49;24.73;;;15.87;;
4084;SDS011;2057;50.858;6.572;2023-12-07T08:01:15;25.50;;;14.57;;
4084;SDS011;2057;50.858;6.572;2023-12-07T08:03:40;23.07;;;15.60;;
4084;SDS011;2057;50.858;6.572;2023-12-07T08:06:06;23.03;;;13.47;;
4084;SDS011;2057;50.858;6.572;2023-12-07T08:08:32;26.08;;;15.05;;
4084;SDS011;2057;50.858;6.572;2023-12-07T08:10:57;29.70;;;14.30;;
4084;SDS011;2057;50.858;6.572;2023-12-07T08:13:23;24.10;;;15.47;;
4084;SDS011;2057;50.858;6.572;2023-12-07T08:15:48;21.37;;;12.80;;
4084;SDS011;2057;50.858;6.572;2023-12-07T08:18:13;27.87;;;14.80;;
4084;SDS011;2057;50.858;6.572;2023-12-07T08:20:39;23.73;;;14.30;;
4084;SDS011;2057;50.858;6.572;2023-12-07T08:23:04;26.03;;;15.33;;
4084;SDS011;2057;50.858;6.572;2023-12-07T08:25:32;30.65;;;15.02;;
4084;SDS011;2057;50.858;6.572;2023-12-07T08:27:57;30.67;;;17.93;;
4084;SDS011;2057;50.858;6.572;2023-12-07T08:30:23;24.00;;;14.73;;
4084;SDS011;2057;50.858;6.572;2023-12-07T08:32:48;26.83;;;16.00;;
4084;SDS011;2057;50.858;6.572;2023-12-07T08:35:13;26.40;;;15.27;;
4084;SDS011;2057;50.858;6.572;2023-12-07T08:37:46;23.98;;;14.38;;
4084;SDS011;2057;50.858;6.572;2023-12-07T08:40:12;24.67;;;14.63;;
4084;SDS011;2057;50.858;6.572;2023-12-07T08:42:40;26.60;;;13.32;;
4084;SDS011;2057;50.858;6.572;2023-12-07T08:45:05;19.60;;;13.30;;
4084;SDS011;2057;50.858;6.572;2023-12-07T08:47:31;24.93;;;14.10;;
4084;SDS011;2057;50.858;6.572;2023-12-07T08:49:56;19.70;;;12.03;;
4084;SDS011;2057;50.858;6.572;2023-12-07T08:52:22;20.90;;;13.30;;
4084;SDS011;2057;50.858;6.572;2023-12-07T08:54:47;27.30;;;14.03;;
4084;SDS011;2057;50.858;6.572;2023-12-07T08:57:12;28.73;;;14.40;;
4084;SDS011;2057;50.858;6.572;2023-12-07T08:59:38;22.37;;;13.37;;
4084;SDS011;2057;50.858;6.572;2023-12-07T09:02:03;23.53;;;12.67;;
4084;SDS011;2057;50.858;6.572;2023-12-07T09:04:28;20.90;;;13.47;;
4084;SDS011;2057;50.858;6.572;2023-12-07T09:06:54;31.77;;;12.93;;
4084;SDS011;2057;50.858;6.572;2023-12-07T09:09:19;21.30;;;14.30;;
4084;SDS011;2057;50.858;6.572;2023-12-07T09:11:50;24.48;;;13.10;;
4084;SDS011;2057;50.858;6.572;2023-12-07T09:14:15;19.48;;;11.75;;
4084;SDS011;2057;50.858;6.572;2023-12-07T09:16:44;26.33;;;14.43;;
4084;SDS011;2057;50.858;6.572;2023-12-07T09:19:10;25.50;;;12.90;;
4084;SDS011;2057;50.858;6.572;2023-12-07T09:21:37;23.08;;;13.32;;
4084;SDS011;2057;50.858;6.572;2023-12-07T09:24:04;26.33;;;14.27;;
4084;SDS011;2057;50.858;6.572;2023-12-07T09:26:31;28.30;;;15.02;;
4084;SDS011;2057;50.858;6.572;2023-12-07T09:28:59;23.00;;;12.93;;
4084;SDS011;2057;50.858;6.572;2023-12-07T09:31:27;25.75;;;14.98;;
4084;SDS011;2057;50.858;6.572;2023-12-07T09:33:55;22.33;;;13.30;;
4084;SDS011;2057;50.858;6.572;2023-12-07T09:36:21;19.80;;;12.55;;
4084;SDS011;2057;50.858;6.572;2023-12-07T09:38:47;21.53;;;13.57;;
4084;SDS011;2057;50.858;6.572;2023-12-07T09:41:12;38.73;;;13.30;;
4084;SDS011;2057;50.858;6.572;2023-12-07T09:43:37;25.60;;;12.80;;
4084;SDS011;2057;50.858;6.572;2023-12-07T09:46:03;17.67;;;12.80;;
4084;SDS011;2057;50.858;6.572;2023-12-07T09:48:36;20.58;;;12.48;;
4084;SDS011;2057;50.858;6.572;2023-12-07T09:51:07;28.48;;;16.27;;
4084;SDS011;2057;50.858;6.572;2023-12-07T09:53:34;31.10;;;17.77;;
4084;SDS011;2057;50.858;6.572;2023-12-07T09:56:03;31.98;;;18.55;;
4084;SDS011;2057;50.858;6.572;2023-12-07T09:58:28;27.20;;;13.40;;
4084;SDS011;2057;50.858;6.572;2023-12-07T10:00:54;27.33;;;12.30;;
4084;SDS011;2057;50.858;6.572;2023-12-07T10:03:21;18.80;;;11.40;;
4084;SDS011;2057;50.858;6.572;2023-12-07T10:05:53;22.73;;;11.27;;
4084;SDS011;2057;50.858;6.572;2023-12-07T10:08:29;24.17;;;13.05;;
4084;SDS011;2057;50.858;6.572;2023-12-07T10:13:33;22.63;;;11.88;;
4084;SDS011;2057;50.858;6.572;2023-12-07T10:16:10;19.02;;;11.93;;
4084;SDS011;2057;50.858;6.572;2023-12-07T10:18:40;17.13;;;11.32;;
4084;SDS011;2057;50.858;6.572;2023-12-07T10:21:06;17.20;;;10.67;;
4084;SDS011;2057;50.858;6.572;2023-12-07T10:23:57;19.52;;;10.88;;
4084;SDS011;2057;50.858;6.572;2023-12-07T10:26:22;22.60;;;10.00;;
4084;SDS011;2057;50.858;6.572;2023-12-07T10:28:51;20.77;;;11.73;;
4084;SDS011;2057;50.858;6.572;2023-12-07T10:31:22;20.10;;;9.95;;
4084;SDS011;2057;50.858;6.572;2023-12-07T10:33:49;19.75;;;11.55;;
4084;SDS011;2057;50.858;6.572;2023-12-07T10:36:14;17.42;;;10.10;;
4084;SDS011;2057;50.858;6.572;2023-12-07T10:38:40;16.93;;;10.67;;
4084;SDS011;2057;50.858;6.572;2023-12-07T10:41:07;17.98;;;10.95;;
4084;SDS011;2057;50.858;6.572;2023-12-07T10:43:44;20.30;;;11.02;;
4084;SDS011;2057;50.858;6.572;2023-12-07T10:46:21;12.60;;;8.38;;
4084;SDS011;2057;50.858;6.572;2023-12-07T10:48:47;28.60;;;12.13;;
4084;SDS011;2057;50.858;6.572;2023-12-07T10:51:37;15.73;;;9.85;;
4084;SDS011;2057;50.858;6.572;2023-12-07T10:54:15;24.88;;;12.20;;
4084;SDS011;2057;50.858;6.572;2023-12-07T10:56:47;18.23;;;9.70;;
4084;SDS011;2057;50.858;6.572;2023-12-07T10:59:15;22.00;;;11.45;;
4084;SDS011;2057;50.858;6.572;2023-12-07T11:01:41;19.93;;;10.47;;
4084;SDS011;2057;50.858;6.572;2023-12-07T11:04:11;14.15;;;9.55;;
4084;SDS011;2057;50.858;6.572;2023-12-07T11:06:42;18.17;;;10.00;;
4084;SDS011;2057;50.858;6.572;2023-12-07T11:12:10;20.88;;;10.20;;
4084;SDS011;2057;50.858;6.572;2023-12-07T11:14:42;19.15;;;10.38;;
4084;SDS011;2057;50.858;6.572;2023-12-07T11:17:08;25.65;;;9.60;;
4084;SDS011;2057;50.858;6.572;2023-12-07T11:22:01;26.48;;;10.48;;
4084;SDS011;2057;50.858;6.572;2023-12-07T11:24:31;15.48;;;8.60;;
4084;SDS011;2057;50.858;6.572;2023-12-07T11:27:01;17.67;;;10.20;;
4084;SDS011;2057;50.858;6.572;2023-12-07T11:29:30;16.63;;;10.03;;
4084;SDS011;2057;50.858;6.572;2023-12-07T11:32:02;18.05;;;10.73;;
4084;SDS011;2057;50.858;6.572;2023-12-07T11:34:41;18.67;;;9.77;;
4084;SDS011;2057;50.858;6.572;2023-12-07T11:37:07;14.70;;;9.48;;
4084;SDS011;2057;50.858;6.572;2023-12-07T11:39:40;21.98;;;11.80;;
4084;SDS011;2057;50.858;6.572;2023-12-07T11:42:15;16.38;;;10.45;;
4084;SDS011;2057;50.858;6.572;2023-12-07T11:44:42;20.75;;;11.15;;
4084;SDS011;2057;50.858;6.572;2023-12-07T11:47:12;26.38;;;11.30;;
4084;SDS011;2057;50.858;6.572;2023-12-07T11:49:41;23.20;;;10.48;;
4084;SDS011;2057;50.858;6.572;2023-12-07T11:52:17;18.70;;;9.60;;
4084;SDS011;2057;50.858;6.572;2023-12-07T11:54:44;16.92;;;8.80;;
4084;SDS011;2057;50.858;6.572;2023-12-07T11:57:10;13.40;;;8.25;;
4084;SDS011;2057;50.858;6.572;2023-12-07T11:59:43;16.33;;;8.75;;
4084;SDS011;2057;50.858;6.572;2023-12-07T12:02:12;15.00;;;7.97;;
4084;SDS011;2057;50.858;6.572;2023-12-07T12:04:46;16.45;;;8.48;;
4084;SDS011;2057;50.858;6.572;2023-12-07T12:07:19;14.88;;;9.57;;
4084;SDS011;2057;50.858;6.572;2023-12-07T12:09:44;21.97;;;10.10;;
4084;SDS011;2057;50.858;6.572;2023-12-07T12:12:12;21.20;;;11.18;;
4084;SDS011;2057;50.858;6.572;2023-12-07T12:14:40;16.10;;;10.30;;
4084;SDS011;2057;50.858;6.572;2023-12-07T12:17:08;13.65;;;9.75;;
4084;SDS011;2057;50.858;6.572;2023-12-07T12:19:34;13.80;;;9.80;;
4084;SDS011;2057;50.858;6.572;2023-12-07T12:22:01;18.20;;;10.23;;
4084;SDS011;2057;50.858;6.572;2023-12-07T12:24:27;21.60;;;11.17;;
4084;SDS011;2057;50.858;6.572;2023-12-07T12:26:53;17.65;;;10.30;;
4084;SDS011;2057;50.858;6.572;2023-12-07T12:29:19;14.00;;;9.90;;
4084;SDS011;2057;50.858;6.572;2023-12-07T12:31:44;14.50;;;10.10;;
4084;SDS011;2057;50.858;6.572;2023-12-07T12:34:10;15.00;;;9.60;;
4084;SDS011;2057;50.858;6.572;2023-12-07T12:36:37;14.93;;;9.63;;
4084;SDS011;2057;50.858;6.572;2023-12-07T12:39:05;15.73;;;10.93;;
4084;SDS011;2057;50.858;6.572;2023-12-07T12:41:33;18.25;;;9.73;;
4084;SDS011;2057;50.858;6.572;2023-12-07T12:43:58;22.90;;;10.60;;
4084;SDS011;2057;50.858;6.572;2023-12-07T12:46:26;28.15;;;12.55;;
4084;SDS011;2057;50.858;6.572;2023-12-07T12:48:58;19.67;;;11.60;;
4084;SDS011;2057;50.858;6.572;2023-12-07T12:51:25;19.17;;;12.30;;
4084;SDS011;2057;50.858;6.572;2023-12-07T12:53:52;22.90;;;10.23;;
4084;SDS011;2057;50.858;6.572;2023-12-07T12:56:19;16.98;;;11.15;;
4084;SDS011;2057;50.858;6.572;2023-12-07T12:58:49;18.02;;;11.65;;
4084;SDS011;2057;50.858;6.572;2023-12-07T13:01:18;23.73;;;11.40;;
4084;SDS011;2057;50.858;6.572;2023-12-07T13:03:45;20.25;;;11.85;;
4084;SDS011;2057;50.858;6.572;2023-12-07T13:06:14;19.27;;;12.60;;
4084;SDS011;2057;50.858;6.572;2023-12-07T13:08:45;26.00;;;13.68;;
4084;SDS011;2057;50.858;6.572;2023-12-07T13:11:16;19.83;;;10.68;;
4084;SDS011;2057;50.858;6.572;2023-12-07T13:13:43;17.38;;;11.20;;
4084;SDS011;2057;50.858;6.572;2023-12-07T13:16:10;18.95;;;11.48;;
4084;SDS011;2057;50.858;6.572;2023-12-07T13:18:39;20.67;;;12.15;;
4084;SDS011;2057;50.858;6.572;2023-12-07T13:28:51;19.27;;;11.90;;
4084;SDS011;2057;50.858;6.572;2023-12-07T13:31:17;23.45;;;11.80;;
4084;SDS011;2057;50.858;6.572;2023-12-07T13:33:43;17.30;;;11.00;;
4084;SDS011;2057;50.858;6.572;2023-12-07T13:36:08;23.13;;;13.37;;
4084;SDS011;2057;50.858;6.572;2023-12-07T13:38:39;17.65;;;12.77;;
4084;SDS011;2057;50.858;6.572;2023-12-07T13:41:05;17.63;;;10.73;;
4084;SDS011;2057;50.858;6.572;2023-12-07T13:43:34;17.13;;;11.77;;
4084;SDS011;2057;50.858;6.572;2023-12-07T13:46:04;21.17;;;12.00;;
4084;SDS011;2057;50.858;6.572;2023-12-07T13:48:29;17.90;;;11.33;;
4084;SDS011;2057;50.858;6.572;2023-12-07T13:50:54;17.67;;;11.30;;
4084;SDS011;2057;50.858;6.572;2023-12-07T13:53:20;13.23;;;9.50;;
4084;SDS011;2057;50.858;6.572;2023-12-07T13:55:46;14.13;;;10.30;;
4084;SDS011;2057;50.858;6.572;2023-12-07T13:58:11;14.43;;;9.63;;
4084;SDS011;2057;50.858;6.572;2023-12-07T14:00:37;18.30;;;11.47;;
4084;SDS011;2057;50.858;6.572;2023-12-07T14:03:10;16.58;;;9.70;;
4084;SDS011;2057;50.858;6.572;2023-12-07T14:05:55;16.85;;;9.27;;
4084;SDS011;2057;50.858;6.572;2023-12-07T14:08:23;17.40;;;10.00;;
4084;SDS011;2057;50.858;6.572;2023-12-07T14:10:50;16.42;;;8.55;;
4084;SDS011;2057;50.858;6.572;2023-12-07T14:13:16;20.43;;;10.50;;
4084;SDS011;2057;50.858;6.572;2023-12-07T14:15:44;16.45;;;9.68;;
4084;SDS011;2057;50.858;6.572;2023-12-07T14:18:12;11.77;;;7.93;;
4084;SDS011;2057;50.858;6.572;2023-12-07T14:20:40;15.20;;;9.50;;
4084;SDS011;2057;50.858;6.572;2023-12-07T14:23:09;13.90;;;9.07;;
4084;SDS011;2057;50.858;6.572;2023-12-07T14:25:37;20.92;;;8.95;;
4084;SDS011;2057;50.858;6.572;2023-12-07T14:28:05;21.33;;;10.35;;
4084;SDS011;2057;50.858;6.572;2023-12-07T14:30:33;16.37;;;10.50;;
4084;SDS011;2057;50.858;6.572;2023-12-07T14:32:59;17.00;;;10.57;;
4084;SDS011;2057;50.858;6.572;2023-12-07T14:35:24;24.33;;;10.50;;
4084;SDS011;2057;50.858;6.572;2023-12-07T14:37:50;14.40;;;9.67;;
4084;SDS011;2057;50.858;6.572;2023-12-07T14:40:15;14.53;;;9.30;;
4084;SDS011;2057;50.858;6.572;2023-12-07T14:42:44;20.73;;;8.95;;
4084;SDS011;2057;50.858;6.572;2023-12-07T14:45:12;16.90;;;8.13;;
4084;SDS011;2057;50.858;6.572;2023-12-07T14:47:38;12.88;;;9.02;;
4084;SDS011;2057;50.858;6.572;2023-12-07T14:50:06;16.92;;;9.13;;
4084;SDS011;2057;50.858;6.572;2023-12-07T14:52:34;25.40;;;10.60;;
4084;SDS011;2057;50.858;6.572;2023-12-07T14:55:01;16.77;;;8.80;;
4084;SDS011;2057;50.858;6.572;2023-12-07T14:57:29;18.48;;;9.68;;
4084;SDS011;2057;50.858;6.572;2023-12-07T14:59:56;22.23;;;9.45;;
4084;SDS011;2057;50.858;6.572;2023-12-07T15:02:30;21.33;;;11.60;;
4084;SDS011;2057;50.858;6.572;2023-12-07T15:04:56;18.77;;;9.57;;
4084;SDS011;2057;50.858;6.572;2023-12-07T15:07:21;16.87;;;9.83;;